createdAt,value
2023-06-06T00:01:58.504Z,100.00
2023-06-06T00:04:46.049Z,100.00
2023-06-06T00:07:33.266Z,100.00
2023-06-06T00:10:19.384Z,100.00
2023-06-06T00:13:04.402Z,100.00
2023-06-06T00:15:49.513Z,100.00
2023-06-06T00:18:34.637Z,100.00
2023-06-06T00:21:21.905Z,100.00
2023-06-06T00:24:06.624Z,100.00
2023-06-06T00:26:51.907Z,100.00
2023-06-06T00:29:36.877Z,100.00
2023-06-06T00:32:21.956Z,100.00
2023-06-06T00:35:06.730Z,100.00
2023-06-06T00:37:51.350Z,100.00
2023-06-06T00:40:36.446Z,100.00
2023-06-06T00:43:21.553Z,100.00
2023-06-06T00:46:07.108Z,100.00
2023-06-06T00:48:52.123Z,100.00
2023-06-06T00:51:38.023Z,100.00
2023-06-06T00:54:23.397Z,100.00
2023-06-06T00:57:10.380Z,100.00
2023-06-06T00:59:55.977Z,100.00
2023-06-06T01:02:44.404Z,100.00
2023-06-06T01:05:30.428Z,100.00
2023-06-06T01:08:16.770Z,100.00
2023-06-06T01:11:10.003Z,100.00
2023-06-06T01:14:29.070Z,100.00
2023-06-06T01:17:17.813Z,100.00
2023-06-06T01:20:07.818Z,100.00
2023-06-06T01:22:53.814Z,100.00
2023-06-06T01:25:41.155Z,100.00
2023-06-06T01:28:28.313Z,100.00
2023-06-06T01:31:19.492Z,100.00
2023-06-06T01:34:11.565Z,100.00
2023-06-06T01:37:08.033Z,100.00
2023-06-06T01:39:56.241Z,100.00
2023-06-06T01:42:45.215Z,100.00
2023-06-06T01:45:32.723Z,100.00
2023-06-06T01:48:19.460Z,100.00
2023-06-06T01:51:05.904Z,100.00
2023-06-06T01:53:51.112Z,100.00
2023-06-06T01:56:35.920Z,100.00
2023-06-06T01:59:21.450Z,100.00
2023-06-06T02:02:07.217Z,100.00
2023-06-06T02:04:52.006Z,100.00
2023-06-06T02:07:38.020Z,100.00
2023-06-06T02:10:25.246Z,100.00
2023-06-06T02:13:10.097Z,100.00
2023-06-06T02:15:55.719Z,100.00
2023-06-06T02:18:45.063Z,100.00
2023-06-06T02:21:30.106Z,100.00
2023-06-06T02:24:14.998Z,100.00
2023-06-06T02:26:59.941Z,100.00
2023-06-06T02:29:44.688Z,100.00
2023-06-06T02:32:30.844Z,100.00
2023-06-06T02:35:16.860Z,100.00
2023-06-06T02:38:01.596Z,100.00
2023-06-06T02:40:46.471Z,100.00
2023-06-06T02:43:31.694Z,100.00
2023-06-06T02:46:16.793Z,100.00
2023-06-06T02:49:01.763Z,100.00
2023-06-06T02:51:47.370Z,100.00
2023-06-06T02:54:32.304Z,100.00
2023-06-06T02:57:17.200Z,100.00
2023-06-06T03:00:08.300Z,100.00
2023-06-06T03:02:53.438Z,100.00
2023-06-06T03:05:39.372Z,100.00
2023-06-06T03:08:24.361Z,100.00
2023-06-06T03:11:09.312Z,100.00
2023-06-06T03:13:55.146Z,100.00
2023-06-06T03:16:40.678Z,100.00
2023-06-06T03:19:26.187Z,100.00
2023-06-06T03:22:13.404Z,99.00
2023-06-06T03:24:59.163Z,95.98
2023-06-06T03:27:44.151Z,93.17
2023-06-06T03:30:29.255Z,89.03
2023-06-06T03:33:16.194Z,84.81
2023-06-06T03:36:03.716Z,80.32
2023-06-06T03:38:49.346Z,75.21
2023-06-06T03:41:35.611Z,71.56
2023-06-06T03:44:20.911Z,69.12
2023-06-06T03:47:06.326Z,65.63
2023-06-06T03:49:51.461Z,63.54
2023-06-06T03:52:36.945Z,61.39
2023-06-06T03:55:23.078Z,59.91
2023-06-06T03:58:07.985Z,58.83
2023-06-06T04:00:53.404Z,57.63
2023-06-06T04:03:39.206Z,57.50
2023-06-06T04:06:26.121Z,57.18
2023-06-06T04:09:13.824Z,56.23
2023-06-06T04:11:58.520Z,56.34
2023-06-06T04:14:43.698Z,57.13
2023-06-06T04:17:28.878Z,57.33
2023-06-06T04:20:13.864Z,58.13
2023-06-06T04:23:00.885Z,60.28
2023-06-06T04:25:45.816Z,62.15
2023-06-06T04:28:32.234Z,62.29
2023-06-06T04:31:17.695Z,64.50
2023-06-06T04:34:04.381Z,68.63
2023-06-06T04:36:52.322Z,72.65
2023-06-06T04:39:39.926Z,71.27
2023-06-06T04:42:33.427Z,66.50
2023-06-06T04:45:18.252Z,63.94
2023-06-06T04:48:03.525Z,64.39
2023-06-06T04:50:50.048Z,67.20
2023-06-06T04:53:45.532Z,70.18
2023-06-06T04:56:30.679Z,73.07
2023-06-06T04:59:17.814Z,73.18
2023-06-06T05:02:03.520Z,67.84
2023-06-06T05:04:55.900Z,63.40
2023-06-06T05:07:40.790Z,60.66
2023-06-06T05:10:26.233Z,59.46
2023-06-06T05:13:19.891Z,57.62
2023-06-06T05:16:14.636Z,56.12
2023-06-06T05:18:59.716Z,55.22
2023-06-06T05:21:45.023Z,53.87
2023-06-06T05:24:31.051Z,52.56
2023-06-06T05:27:16.340Z,52.16
2023-06-06T05:30:06.427Z,51.75
2023-06-06T05:32:53.108Z,51.23
2023-06-06T05:35:38.135Z,50.83
2023-06-06T05:38:25.022Z,50.42
2023-06-06T05:41:21.805Z,50.15
2023-06-06T05:44:07.505Z,50.48
2023-06-06T05:47:05.381Z,50.12
2023-06-06T05:49:56.792Z,49.66
2023-06-06T05:52:41.947Z,49.96
2023-06-06T05:55:32.387Z,50.08
2023-06-06T05:58:22.757Z,49.41
2023-06-06T06:01:10.261Z,49.27
2023-06-06T06:03:55.639Z,49.81
2023-06-06T06:06:52.960Z,50.09
2023-06-06T06:09:38.153Z,50.95
2023-06-06T06:12:29.473Z,50.70
2023-06-06T06:15:14.460Z,50.43
2023-06-06T06:18:08.236Z,50.49
2023-06-06T06:20:56.778Z,49.60
2023-06-06T06:23:42.479Z,49.11
2023-06-06T06:26:27.438Z,49.55
2023-06-06T06:29:12.646Z,47.02
2023-06-06T06:32:04.825Z,48.17
2023-06-06T06:34:54.968Z,48.95
2023-06-06T06:37:45.282Z,48.68
2023-06-06T06:40:32.996Z,49.08
2023-06-06T06:46:13.306Z,47.72
2023-06-06T06:48:58.448Z,47.13
2023-06-06T06:51:44.270Z,47.10
2023-06-06T06:54:29.878Z,46.80
2023-06-06T06:57:17.478Z,46.76
2023-06-06T07:00:13.313Z,45.97
2023-06-06T07:03:00.530Z,45.25
2023-06-06T07:05:55.754Z,44.23
2023-06-06T07:08:43.073Z,43.08
2023-06-06T07:11:28.178Z,43.17
2023-06-06T07:14:13.091Z,41.85
2023-06-06T07:16:58.400Z,40.79
2023-06-06T07:19:43.984Z,41.23
2023-06-06T07:22:29.229Z,40.73
2023-06-06T07:25:14.747Z,42.12
2023-06-06T07:27:59.697Z,41.52
2023-06-06T07:30:45.526Z,41.30
2023-06-06T07:33:37.585Z,39.74
2023-06-06T07:36:22.590Z,39.59
2023-06-06T07:39:07.605Z,39.80
2023-06-06T07:41:57.376Z,39.51
2023-06-06T07:44:42.157Z,39.91
2023-06-06T07:47:27.439Z,39.37
2023-06-06T07:50:12.415Z,37.93
2023-06-06T07:52:57.336Z,37.42
2023-06-06T07:55:44.204Z,37.08
2023-06-06T07:59:01.462Z,35.55
2023-06-06T08:01:46.606Z,35.87
2023-06-06T08:04:34.148Z,35.28
2023-06-06T08:07:20.684Z,34.57
2023-06-06T08:10:15.846Z,35.17
2023-06-06T08:13:04.870Z,34.49
2023-06-06T08:15:50.660Z,34.92
2023-06-06T08:18:38.078Z,35.67
2023-06-06T08:21:26.469Z,36.77
2023-06-06T08:24:11.717Z,36.05
2023-06-06T08:26:58.044Z,35.69
2023-06-06T08:29:42.844Z,35.05
2023-06-06T08:32:30.877Z,35.84
2023-06-06T08:35:15.652Z,35.45
2023-06-06T08:38:01.046Z,35.06
2023-06-06T08:40:46.465Z,34.43
2023-06-06T08:43:37.248Z,34.38
2023-06-06T08:46:25.606Z,32.60
2023-06-06T08:49:11.285Z,34.59
2023-06-06T08:51:57.661Z,35.92
2023-06-06T08:54:46.171Z,36.55
2023-06-06T08:57:49.133Z,37.47
2023-06-06T09:00:38.831Z,38.29
2023-06-06T09:03:25.522Z,38.64
2023-06-06T09:06:14.317Z,38.09
2023-06-06T09:08:59.408Z,37.66
2023-06-06T09:11:46.769Z,37.26
2023-06-06T09:14:33.990Z,37.19
2023-06-06T09:17:19.286Z,36.49
2023-06-06T09:20:17.401Z,33.99
2023-06-06T09:23:10.551Z,33.03
2023-06-06T09:25:55.912Z,31.97
2023-06-06T09:28:41.303Z,31.06
2023-06-06T09:31:33.407Z,31.84
2023-06-06T09:34:27.696Z,29.18
2023-06-06T09:37:15.315Z,29.12
2023-06-06T09:40:21.438Z,27.91
2023-06-06T09:43:09.450Z,26.42
2023-06-06T09:46:04.880Z,27.09
2023-06-06T09:48:59.161Z,29.03
2023-06-06T09:51:44.457Z,29.89
2023-06-06T09:54:29.439Z,31.44
2023-06-06T09:57:14.661Z,30.99
2023-06-06T10:00:02.992Z,32.37
2023-06-06T10:02:58.971Z,32.06
2023-06-06T10:05:50.385Z,32.22
2023-06-06T10:08:37.235Z,32.01
2023-06-06T10:11:22.920Z,32.11
2023-06-06T10:14:09.409Z,33.73
2023-06-06T10:16:55.320Z,34.21
2023-06-06T10:19:41.844Z,34.52
2023-06-06T10:22:30.547Z,33.96
2023-06-06T10:25:19.559Z,33.59
2023-06-06T10:28:11.548Z,33.66
2023-06-06T10:31:07.184Z,33.91
2023-06-06T10:33:55.665Z,34.67
2023-06-06T10:36:44.224Z,34.63
2023-06-06T10:39:30.183Z,34.28
2023-06-06T10:42:16.084Z,34.90
2023-06-06T10:45:00.753Z,35.24
2023-06-06T10:47:49.235Z,35.25
2023-06-06T10:50:35.658Z,35.48
2023-06-06T10:53:20.947Z,36.05
2023-06-06T10:56:09.588Z,35.98
2023-06-06T10:58:55.109Z,34.49
2023-06-06T11:01:48.193Z,34.24
2023-06-06T11:04:39.930Z,34.57
2023-06-06T11:07:28.333Z,33.72
2023-06-06T11:10:13.046Z,33.93
2023-06-06T11:13:27.072Z,34.12
2023-06-06T11:16:12.220Z,33.33
2023-06-06T11:19:04.272Z,31.77
2023-06-06T11:21:50.767Z,30.93
2023-06-06T11:24:36.640Z,29.82
2023-06-06T11:27:22.496Z,28.30
2023-06-06T11:30:08.959Z,27.88
2023-06-06T11:32:56.047Z,28.30
2023-06-06T11:35:41.167Z,27.30
2023-06-06T11:38:27.719Z,27.82
2023-06-06T11:41:13.007Z,28.65
2023-06-06T11:43:58.134Z,28.24
2023-06-06T11:46:55.553Z,28.63
2023-06-06T11:49:47.770Z,29.67
2023-06-06T11:52:33.141Z,30.32
2023-06-06T11:55:18.250Z,30.78
2023-06-06T11:58:05.068Z,30.39
2023-06-06T12:00:56.772Z,29.86
2023-06-06T12:03:43.690Z,30.08
2023-06-06T12:06:29.260Z,30.50
2023-06-06T12:09:15.173Z,30.22
2023-06-06T12:12:04.732Z,29.24
2023-06-06T12:14:57.665Z,28.54
2023-06-06T12:17:42.354Z,27.51
2023-06-06T12:20:27.357Z,27.76
2023-06-06T12:23:12.481Z,28.53
2023-06-06T12:25:58.020Z,29.60
2023-06-06T12:28:57.578Z,30.49
2023-06-06T12:31:46.398Z,30.30
2023-06-06T12:34:59.892Z,30.61
2023-06-06T12:37:48.369Z,29.86
2023-06-06T12:40:35.964Z,29.32
2023-06-06T12:43:21.411Z,29.44
2023-06-06T12:46:06.355Z,27.43
2023-06-06T12:48:51.385Z,25.94
2023-06-06T12:51:39.896Z,25.52
2023-06-06T12:54:25.620Z,25.02
2023-06-06T12:57:12.399Z,24.65
2023-06-06T12:59:58.115Z,25.54
2023-06-06T13:02:44.032Z,25.74
2023-06-06T13:05:29.048Z,25.06
2023-06-06T13:08:22.287Z,23.24
2023-06-06T13:11:18.390Z,21.31
2023-06-06T13:14:03.447Z,21.08
2023-06-06T13:17:10.208Z,20.56
2023-06-06T13:19:56.944Z,21.66
2023-06-06T13:22:42.541Z,21.31
2023-06-06T13:25:27.594Z,21.16
2023-06-06T13:28:12.584Z,21.25
2023-06-06T13:30:57.753Z,21.01
2023-06-06T13:33:42.592Z,20.54
2023-06-06T13:36:27.571Z,19.56
2023-06-06T13:39:12.571Z,20.79
2023-06-06T13:41:57.851Z,20.70
2023-06-06T13:44:42.920Z,21.49
2023-06-06T13:47:27.906Z,21.55
2023-06-06T13:50:13.196Z,21.62
2023-06-06T13:52:57.811Z,21.20
2023-06-06T13:55:43.040Z,21.01
2023-06-06T13:58:31.825Z,21.05
2023-06-06T14:01:19.996Z,20.82
2023-06-06T14:04:06.216Z,21.41
2023-06-06T14:06:51.978Z,20.88
2023-06-06T14:09:37.102Z,21.09
2023-06-06T14:12:22.203Z,21.10
2023-06-06T14:15:07.464Z,20.90
2023-06-06T14:17:54.247Z,20.94
2023-06-06T14:21:00.107Z,21.78
2023-06-06T14:23:48.408Z,21.34
2023-06-06T14:26:33.326Z,21.33
2023-06-06T14:29:18.597Z,19.97
2023-06-06T14:32:04.063Z,19.33
2023-06-06T14:34:49.065Z,19.77
2023-06-06T14:37:33.914Z,19.18
2023-06-06T14:40:18.758Z,18.76
2023-06-06T14:43:03.814Z,18.40
2023-06-06T14:45:48.663Z,18.46
2023-06-06T14:48:33.670Z,19.11
2023-06-06T14:51:18.646Z,20.56
2023-06-06T14:54:03.565Z,20.25
2023-06-06T14:56:48.087Z,20.11
2023-06-06T14:59:33.136Z,20.07
2023-06-06T15:02:18.552Z,21.84
2023-06-06T15:05:03.710Z,23.44
2023-06-06T15:07:48.567Z,24.99
2023-06-06T15:10:33.541Z,25.36
2023-06-06T15:13:18.743Z,26.31
2023-06-06T15:16:09.507Z,27.51
2023-06-06T15:18:56.876Z,26.06
2023-06-06T15:21:41.585Z,26.55
2023-06-06T15:24:28.997Z,27.94
2023-06-06T15:27:13.905Z,29.15
2023-06-06T15:29:58.818Z,30.78
2023-06-06T15:32:43.735Z,31.79
2023-06-06T15:35:28.823Z,31.55
2023-06-06T15:38:15.705Z,32.41
2023-06-06T15:41:00.639Z,33.27
2023-06-06T15:43:45.667Z,32.82
2023-06-06T15:46:30.845Z,32.25
2023-06-06T15:49:18.440Z,32.97
2023-06-06T15:52:03.480Z,33.90
2023-06-06T15:54:48.153Z,34.52
2023-06-06T15:57:33.021Z,35.31
2023-06-06T16:00:18.675Z,35.72
2023-06-06T16:03:05.386Z,36.07
2023-06-06T16:05:50.291Z,36.47
2023-06-06T16:08:35.301Z,36.28
2023-06-06T16:11:21.206Z,35.98
2023-06-06T16:14:06.536Z,36.25
2023-06-06T16:16:52.184Z,35.26
2023-06-06T16:19:37.066Z,34.47
2023-06-06T16:22:22.352Z,34.15
2023-06-06T16:25:07.793Z,34.09
2023-06-06T16:27:52.390Z,34.86
2023-06-06T16:30:37.559Z,32.79
2023-06-06T16:33:22.360Z,31.49
2023-06-06T16:36:07.347Z,29.25
2023-06-06T16:38:52.306Z,29.24
2023-06-06T16:41:37.418Z,29.35
2023-06-06T16:44:22.544Z,28.91
2023-06-06T16:47:07.494Z,28.64
2023-06-06T16:49:52.623Z,29.64
2023-06-06T16:52:40.852Z,28.98
2023-06-06T16:55:26.005Z,30.06
2023-06-06T16:58:10.807Z,31.21
2023-06-06T17:00:56.545Z,32.08
2023-06-06T17:03:41.704Z,32.99
2023-06-06T17:06:26.556Z,33.41
2023-06-06T17:09:11.886Z,33.73
2023-06-06T17:11:56.928Z,34.29
2023-06-06T17:14:42.126Z,34.99
2023-06-06T17:17:27.065Z,35.61
2023-06-06T17:20:13.046Z,36.59
2023-06-06T17:22:58.071Z,36.91
2023-06-06T17:25:50.994Z,37.30
2023-06-06T17:28:36.508Z,39.00
2023-06-06T17:31:21.788Z,39.95
2023-06-06T17:34:06.402Z,41.75
2023-06-06T17:36:51.505Z,43.36
2023-06-06T17:39:36.448Z,44.75
2023-06-06T17:42:21.531Z,46.81
2023-06-06T17:45:08.050Z,48.36
2023-06-06T17:47:52.847Z,50.39
2023-06-06T17:50:38.008Z,51.17
2023-06-06T17:53:23.313Z,53.13
2023-06-06T17:56:07.856Z,56.57
2023-06-06T17:58:53.226Z,59.49
2023-06-06T18:01:37.702Z,65.12
2023-06-06T18:04:22.909Z,71.55
2023-06-06T18:07:07.916Z,75.35
2023-06-06T18:09:52.755Z,75.42
2023-06-06T18:12:37.757Z,81.36
2023-06-06T18:15:23.255Z,89.36
2023-06-06T18:18:08.397Z,91.62
2023-06-06T18:20:53.195Z,93.64
2023-06-06T18:23:40.060Z,97.64
2023-06-06T18:26:25.041Z,98.13
2023-06-06T18:29:10.199Z,100.00
2023-06-06T18:31:55.835Z,100.00
2023-06-06T18:34:40.731Z,100.00
2023-06-06T18:37:25.775Z,100.00
2023-06-06T18:40:14.624Z,100.00
2023-06-06T18:42:59.070Z,100.00
2023-06-06T18:45:48.455Z,98.55
2023-06-06T18:48:34.024Z,98.15
2023-06-06T18:51:18.886Z,97.84
2023-06-06T18:54:03.919Z,98.71
2023-06-06T18:56:48.494Z,99.05
2023-06-06T18:59:34.264Z,100.00
2023-06-06T19:02:18.877Z,100.00
2023-06-06T19:05:06.618Z,100.00
2023-06-06T19:07:51.399Z,100.00
2023-06-06T19:10:36.666Z,100.00
2023-06-06T19:13:22.271Z,100.00
2023-06-06T19:16:07.479Z,100.00
2023-06-06T19:18:52.291Z,100.00
2023-06-06T19:21:37.114Z,100.00
2023-06-06T19:24:21.929Z,100.00
2023-06-06T19:27:07.040Z,100.00
2023-06-06T19:29:51.815Z,100.00
2023-06-06T19:32:36.676Z,100.00
2023-06-06T19:35:22.151Z,100.00
2023-06-06T19:38:07.336Z,100.00
2023-06-06T19:40:52.119Z,100.00
2023-06-06T19:43:37.855Z,100.00
2023-06-06T19:46:22.762Z,100.00
2023-06-06T19:49:09.136Z,100.00
2023-06-06T19:51:54.052Z,100.00
2023-06-06T19:54:39.505Z,100.00
2023-06-06T19:57:24.352Z,100.00
2023-06-06T20:00:10.142Z,100.00
2023-06-06T20:02:57.892Z,100.00
2023-06-06T20:05:42.964Z,100.00
2023-06-06T20:08:27.951Z,100.00
2023-06-06T20:11:13.153Z,100.00
2023-06-06T20:14:00.165Z,100.00
2023-06-06T20:16:45.872Z,100.00
2023-06-06T20:19:31.354Z,100.00
2023-06-06T20:22:16.116Z,100.00
2023-06-06T20:25:01.361Z,100.00
2023-06-06T20:27:46.113Z,100.00
2023-06-06T20:30:32.395Z,100.00
2023-06-06T20:33:20.233Z,100.00
2023-06-06T20:36:06.264Z,100.00
2023-06-06T20:38:51.839Z,100.00
2023-06-06T20:41:36.903Z,100.00
2023-06-06T20:44:22.184Z,100.00
2023-06-06T20:47:07.390Z,100.00
2023-06-06T20:49:52.190Z,100.00
2023-06-06T20:52:38.293Z,100.00
2023-06-06T20:55:23.098Z,100.00
2023-06-06T20:58:08.679Z,100.00
2023-06-06T21:00:54.064Z,100.00
2023-06-06T21:03:38.820Z,100.00
2023-06-06T21:06:23.809Z,100.00
2023-06-06T21:09:08.553Z,100.00
2023-06-06T21:11:53.684Z,100.00
2023-06-06T21:14:38.217Z,100.00
2023-06-06T21:17:23.354Z,100.00
2023-06-06T21:20:09.627Z,100.00
2023-06-06T21:22:54.486Z,100.00
2023-06-06T21:25:40.336Z,100.00
2023-06-06T21:28:24.922Z,100.00
2023-06-06T21:31:10.575Z,100.00
2023-06-06T21:33:55.399Z,100.00
2023-06-06T21:36:40.713Z,100.00
2023-06-06T21:39:25.399Z,100.00
2023-06-06T21:42:10.452Z,100.00
2023-06-06T21:44:55.316Z,100.00
2023-06-06T21:47:40.564Z,100.00
2023-06-06T21:50:26.957Z,100.00
2023-06-06T21:53:12.184Z,100.00
2023-06-06T21:55:57.287Z,100.00
2023-06-06T21:58:42.333Z,100.00
2023-06-06T22:01:27.312Z,100.00
2023-06-06T22:04:13.638Z,100.00
2023-06-06T22:07:03.108Z,100.00
2023-06-06T22:09:47.868Z,100.00
2023-06-06T22:12:33.062Z,100.00
2023-06-06T22:15:17.984Z,100.00
2023-06-06T22:18:03.270Z,100.00
2023-06-06T22:20:48.172Z,100.00
2023-06-06T22:23:34.541Z,100.00
2023-06-06T22:26:19.450Z,100.00
2023-06-06T22:29:06.557Z,100.00
2023-06-06T22:31:52.641Z,100.00
2023-06-06T22:34:37.339Z,100.00
2023-06-06T22:37:25.130Z,100.00
2023-06-06T22:40:10.254Z,100.00
2023-06-06T22:42:56.277Z,100.00
2023-06-06T22:45:41.309Z,100.00
2023-06-06T22:48:26.145Z,100.00
2023-06-06T22:51:11.032Z,100.00
2023-06-06T22:53:56.062Z,100.00
2023-06-06T22:56:41.089Z,100.00
2023-06-06T22:59:26.700Z,100.00
2023-06-06T23:02:11.478Z,100.00
2023-06-06T23:04:56.466Z,100.00
2023-06-06T23:07:41.737Z,100.00
2023-06-06T23:10:27.157Z,100.00
2023-06-06T23:13:12.017Z,100.00
2023-06-06T23:15:56.808Z,100.00
2023-06-06T23:18:41.885Z,100.00
2023-06-06T23:21:29.604Z,100.00
2023-06-06T23:24:14.826Z,100.00
2023-06-06T23:26:59.941Z,100.00
2023-06-06T23:29:44.920Z,100.00
2023-06-06T23:32:30.498Z,100.00
2023-06-06T23:35:15.323Z,100.00
2023-06-06T23:38:00.458Z,100.00
2023-06-06T23:40:45.289Z,100.00
2023-06-06T23:43:29.863Z,100.00
2023-06-06T23:46:14.950Z,100.00
2023-06-06T23:48:59.777Z,100.00
2023-06-06T23:51:44.811Z,100.00
2023-06-06T23:54:29.745Z,100.00
2023-06-06T23:57:14.800Z,100.00
2023-06-06T23:59:59.657Z,100.00
